Time;durP1;ratioP1;P1;durP2;ratioP2;P2;SDS_P1;SDS_P2;PMS_P1;PMS_P2;Temp;Humidity;BMP_temperature;BMP_pressure;BME280_temperature;BME280_humidity;BME280_pressure;Samples;Min_cycle;Max_cycle;Signal;HPM_P1;HPM_P2
2022/11/29 00:01:04;;;;;;;8.23;5.33;;;4.70;99.90;4.90;100493.00;;;;4986287;28;116226;-67
2022/11/29 00:03:30;;;;;;;9.07;6.13;;;5.10;99.90;4.90;100489.00;;;;4993098;28;117404;-67
2022/11/29 00:05:59;;;;;;;9.50;5.97;;;5.00;99.90;4.90;100495.00;;;;4988768;27;94205;-67
2022/11/29 00:08:25;;;;;;;8.50;5.03;;;5.30;99.90;4.90;100485.00;;;;4970268;28;101213;-67
2022/11/29 00:10:50;;;;;;;10.20;6.13;;;5.10;99.90;4.90;100494.00;;;;4989834;28;98948;-66
2022/11/29 00:13:16;;;;;;;8.70;5.70;;;5.10;99.90;4.90;100485.00;;;;4991124;28;93975;-66
2022/11/29 00:15:42;;;;;;;5.90;4.70;;;5.10;99.90;4.90;100492.00;;;;4994316;28;102476;-66
2022/11/29 00:18:08;;;;;;;7.20;5.73;;;5.00;99.90;4.90;100499.00;;;;4993019;28;87789;-66
2022/11/29 00:20:34;;;;;;;10.47;5.97;;;5.00;99.90;4.90;100491.00;;;;4989866;28;120317;-66
2022/11/29 00:23:01;;;;;;;8.40;6.97;;;5.00;99.90;4.80;100489.00;;;;4971510;28;116519;-65
2022/11/29 00:25:27;;;;;;;6.20;5.27;;;5.00;99.90;4.80;100492.00;;;;4988104;28;88628;-66
2022/11/29 00:27:53;;;;;;;7.43;5.37;;;5.00;99.90;4.80;100487.00;;;;4988659;28;107674;-68
2022/11/29 00:30:19;;;;;;;8.33;5.63;;;5.00;99.90;4.80;100496.00;;;;4989238;28;87980;-67
2022/11/29 00:32:45;;;;;;;7.43;5.77;;;5.00;99.90;4.80;100497.00;;;;4988840;28;87663;-66
2022/11/29 00:35:11;;;;;;;6.73;4.17;;;4.90;99.90;4.80;100488.00;;;;4987262;28;87708;-66
2022/11/29 00:37:37;;;;;;;6.87;5.00;;;5.00;99.90;4.80;100487.00;;;;4988927;27;87136;-66
2022/11/29 00:40:04;;;;;;;11.40;6.30;;;5.00;99.90;4.80;100490.00;;;;4990109;28;117749;-66
2022/11/29 00:42:30;;;;;;;15.37;6.07;;;5.00;99.90;4.80;100493.00;;;;4985437;28;108783;-66
2022/11/29 00:44:55;;;;;;;9.37;6.93;;;4.90;99.90;4.80;100496.00;;;;4986626;27;88807;-67
2022/11/29 00:47:21;;;;;;;7.80;6.20;;;5.00;99.90;4.80;100489.00;;;;4991459;28;109998;-68
2022/11/29 00:49:47;;;;;;;8.47;5.80;;;5.50;99.90;4.80;100488.00;;;;4991251;27;118014;-68
2022/11/29 00:52:12;;;;;;;10.03;5.73;;;4.90;99.90;4.80;100492.00;;;;4989932;28;113268;-66
2022/11/29 00:54:38;;;;;;;11.87;5.73;;;5.00;99.90;4.80;100477.00;;;;4994374;28;109895;-66
2022/11/29 00:57:04;;;;;;;10.10;6.23;;;4.90;99.90;4.80;100483.00;;;;4992142;28;109143;-67
2022/11/29 00:59:29;;;;;;;8.90;6.47;;;5.00;99.90;4.80;100476.00;;;;4991806;28;117317;-66
2022/11/29 01:01:55;;;;;;;8.00;5.03;;;5.00;99.90;4.80;100481.00;;;;4992059;28;118102;-67
2022/11/29 01:04:21;;;;;;;8.83;5.60;;;5.50;99.90;4.80;100484.00;;;;4991031;28;100603;-66
2022/11/29 01:06:51;;;;;;;11.13;5.20;;;5.70;99.90;4.80;100476.00;;;;4985236;27;92781;-66
2022/11/29 01:09:16;;;;;;;9.77;6.10;;;5.00;99.90;4.80;100486.00;;;;4988137;27;89523;-66
2022/11/29 01:11:42;;;;;;;14.07;6.00;;;5.50;99.90;4.80;100492.00;;;;4984355;27;117865;-66
2022/11/29 01:14:09;;;;;;;7.30;5.30;;;5.00;99.90;4.80;100481.00;;;;4989365;27;111190;-67
2022/11/29 01:16:35;;;;;;;8.80;5.73;;;5.00;99.90;4.80;100488.00;;;;4972042;27;88211;-66
2022/11/29 01:19:01;;;;;;;8.30;6.13;;;5.00;99.90;4.80;100486.00;;;;4987008;27;88220;-67
2022/11/29 01:21:27;;;;;;;10.23;5.77;;;5.00;99.90;4.80;100481.00;;;;4984297;28;88318;-67
2022/11/29 01:23:53;;;;;;;8.70;5.17;;;5.00;99.90;4.80;100486.00;;;;4988107;28;87715;-67
2022/11/29 01:26:25;;;;;;;6.63;5.03;;;5.00;99.90;4.80;100488.00;;;;4993794;28;87051;-67
2022/11/29 01:28:54;;;;;;;6.50;5.07;;;5.00;99.90;4.80;100486.00;;;;4988894;28;87998;-67
2022/11/29 01:31:35;;;;;;;9.13;5.67;;;5.00;99.90;4.80;100480.00;;;;4987060;28;103188;-67
2022/11/29 01:34:03;;;;;;;11.23;5.67;;;5.00;99.90;4.80;100481.00;;;;4982559;28;88812;-67
2022/11/29 01:36:29;;;;;;;11.17;6.53;;;5.00;99.90;4.80;100482.00;;;;4988956;28;87823;-67
2022/11/29 01:38:55;;;;;;;12.37;7.80;;;4.90;99.90;4.80;100486.00;;;;4990918;28;88205;-67
2022/11/29 01:41:28;;;;;;;8.27;6.17;;;5.00;99.90;4.80;100486.00;;;;4987555;27;88313;-67
2022/11/29 01:44:25;;;;;;;10.33;6.67;;;5.00;99.90;4.80;100484.00;;;;4988600;28;100006;-67
2022/11/29 01:46:52;;;;;;;10.57;6.43;;;5.00;99.90;4.80;100482.00;;;;4985003;27;93342;-67
2022/11/29 01:49:27;;;;;;;9.53;6.30;;;5.00;99.90;4.80;100490.00;;;;4988692;27;108144;-67
2022/11/29 01:52:04;;;;;;;9.20;6.63;;;5.30;99.90;4.80;100493.00;;;;4990710;27;87716;-67
2022/11/29 01:54:34;;;;;;;11.07;6.83;;;4.90;99.90;4.80;100484.00;;;;4980352;28;97655;-67
2022/11/29 01:57:02;;;;;;;10.70;6.10;;;4.90;99.90;4.80;100480.00;;;;4991337;28;96385;-67
2022/11/29 01:59:29;;;;;;;8.93;6.63;;;5.30;99.90;4.80;100484.00;;;;4995029;28;104950;-68
2022/11/29 02:02:06;;;;;;;9.80;5.10;;;4.90;99.90;4.80;100477.00;;;;4979828;28;117870;-67
2022/11/29 02:04:34;;;;;;;10.90;8.93;;;4.90;99.90;4.80;100480.00;;;;4979489;28;102843;-67
2022/11/29 02:07:01;;;;;;;7.13;6.40;;;5.00;99.90;4.90;100495.00;;;;4993930;28;87899;-67
2022/11/29 02:09:26;;;;;;;9.23;6.03;;;5.00;99.90;4.90;100490.00;;;;4986867;28;88832;-67
2022/11/29 02:12:11;;;;;;;9.23;6.63;;;5.10;99.90;4.80;100483.00;;;;4990547;27;116832;-67
2022/11/29 02:15:17;;;;;;;10.10;6.83;;;5.10;99.90;4.90;100497.00;;;;4989056;27;94630;-67
2022/11/29 02:18:14;;;;;;;6.17;5.37;;;5.10;99.90;4.90;100490.00;;;;4967638;28;104130;-66
2022/11/29 02:21:29;;;;;;;7.17;6.40;;;5.10;99.90;4.90;100491.00;;;;4991269;27;88280;-66
2022/11/29 02:24:45;;;;;;;14.53;7.93;;;5.10;99.90;4.90;100491.00;;;;4984766;28;109153;-66
2022/11/29 02:27:33;;;;;;;10.80;6.73;;;5.10;99.90;4.90;100499.00;;;;4983684;28;88699;-66
2022/11/29 02:30:42;;;;;;;11.17;6.93;;;5.60;99.90;5.00;100493.00;;;;4972055;28;102032;-66
2022/11/29 02:33:47;;;;;;;8.57;6.53;;;5.10;99.90;5.00;100491.00;;;;4960499;28;110895;-68
2022/11/29 02:36:32;;;;;;;9.93;6.90;;;5.20;99.90;5.00;100495.00;;;;4952633;28;100102;-68
2022/11/29 02:39:43;;;;;;;14.90;7.77;;;5.10;99.90;5.00;100495.00;;;;4990571;27;90806;-67
2022/11/29 02:43:00;;;;;;;14.97;7.47;;;5.20;99.90;5.00;100509.00;;;;4938746;28;87770;-68
2022/11/29 02:45:32;;;;;;;12.07;8.10;;;5.30;99.90;5.10;100520.00;;;;4879427;28;89332;-67
2022/11/29 02:48:23;;;;;;;10.60;7.73;;;5.20;99.90;5.10;100508.00;;;;4973255;28;113327;-67
2022/11/29 02:51:03;;;;;;;10.13;8.13;;;5.30;99.90;5.10;100507.00;;;;4983229;28;87803;-67
2022/11/29 02:53:57;;;;;;;12.83;7.23;;;5.20;99.90;5.10;100513.00;;;;4989536;27;87606;-67
2022/11/29 02:57:22;;;;;;;10.97;7.43;;;5.40;99.90;5.10;100510.00;;;;4975977;28;110962;-67
2022/11/29 02:59:57;;;;;;;14.00;8.17;;;5.30;99.90;5.20;100510.00;;;;4960667;28;88074;-67
2022/11/29 03:02:37;;;;;;;7.80;6.97;;;5.30;99.90;5.20;100509.00;;;;4989727;28;87808;-68
2022/11/29 03:05:29;;;;;;;10.20;7.23;;;5.40;99.90;5.20;100518.00;;;;4971016;28;100467;-67
2022/11/29 03:08:18;;;;;;;9.47;6.87;;;5.40;99.90;5.20;100515.00;;;;4989210;28;96059;-67
2022/11/29 03:10:55;;;;;;;11.97;7.10;;;5.40;99.90;5.20;100518.00;;;;4994010;28;88898;-67
2022/11/29 03:14:03;;;;;;;9.33;7.30;;;5.40;99.90;5.20;100522.00;;;;4994951;28;88010;-67
2022/11/29 03:17:14;;;;;;;10.20;7.07;;;5.40;99.90;5.10;100527.00;;;;4971999;28;87291;-67
2022/11/29 03:20:28;;;;;;;11.93;7.27;;;5.40;99.90;5.10;100518.00;;;;4988757;28;87873;-67
2022/11/29 03:23:41;;;;;;;15.30;7.40;;;5.40;99.90;5.10;100530.00;;;;4906249;28;87875;-66
2022/11/29 03:26:13;;;;;;;10.07;6.00;;;5.30;99.90;5.10;100530.00;;;;4971692;28;101108;-66
2022/11/29 03:28:51;;;;;;;13.57;7.87;;;5.30;99.90;5.10;100532.00;;;;4977578;28;88030;-66
2022/11/29 03:31:26;;;;;;;13.83;8.40;;;5.30;99.90;5.10;100538.00;;;;4990143;27;109760;-66
2022/11/29 03:34:32;;;;;;;7.67;5.83;;;5.30;99.90;5.10;100538.00;;;;4976122;28;111113;-66
2022/11/29 03:37:07;;;;;;;8.63;6.63;;;5.30;99.90;5.10;100529.00;;;;4978672;28;87749;-66
2022/11/29 03:39:52;;;;;;;13.27;7.70;;;5.30;99.90;5.10;100524.00;;;;4977446;28;102874;-66
2022/11/29 03:42:36;;;;;;;8.70;6.77;;;5.30;99.90;5.10;100543.00;;;;4978668;28;88902;-66
2022/11/29 03:45:31;;;;;;;15.50;6.43;;;5.30;99.90;5.10;100538.00;;;;4968341;28;88293;-67
2022/11/29 03:48:21;;;;;;;10.97;8.30;;;5.40;99.90;5.10;100534.00;;;;4991515;27;104463;-67
2022/11/29 03:51:02;;;;;;;13.53;7.10;;;5.30;99.90;5.10;100541.00;;;;4990754;27;88107;-68
2022/11/29 03:53:42;;;;;;;11.87;7.63;;;5.20;99.90;5.10;100533.00;;;;4976041;28;91636;-67
2022/11/29 03:56:30;;;;;;;15.00;7.93;;;5.30;99.90;5.10;100532.00;;;;4973225;28;111627;-67
2022/11/29 03:59:47;;;;;;;19.20;9.17;;;5.30;99.90;5.10;100532.00;;;;4991727;27;87867;-67
2022/11/29 04:02:57;;;;;;;10.60;7.70;;;5.20;99.90;5.00;100536.00;;;;4976248;28;96126;-67
2022/11/29 04:05:58;;;;;;;13.23;7.80;;;5.20;99.90;5.00;100536.00;;;;4985245;27;87988;-67
2022/11/29 04:09:10;;;;;;;13.33;8.30;;;5.20;99.90;5.00;100540.00;;;;4973726;28;110070;-68
2022/11/29 04:11:58;;;;;;;11.60;7.07;;;5.20;99.90;5.00;100542.00;;;;4982841;27;102222;-67
2022/11/29 04:14:56;;;;;;;18.00;7.77;;;5.20;99.90;4.90;100535.00;;;;4985165;27;87151;-68
2022/11/29 04:17:52;;;;;;;9.70;7.93;;;5.10;99.90;4.90;100543.00;;;;4973966;28;87998;-67
2022/11/29 04:20:46;;;;;;;11.47;8.27;;;5.20;99.90;4.90;100550.00;;;;4978398;28;87800;-67
2022/11/29 04:23:54;;;;;;;11.13;7.80;;;5.10;99.90;4.90;100542.00;;;;4981047;28;88628;-67
2022/11/29 04:27:09;;;;;;;14.40;8.43;;;5.10;99.90;4.80;100551.00;;;;4970705;28;87897;-67
2022/11/29 04:30:02;;;;;;;17.10;8.80;;;5.10;99.90;4.80;100558.00;;;;4956385;28;111433;-67
2022/11/29 04:32:58;;;;;;;11.10;7.23;;;5.10;99.90;4.80;100553.00;;;;4977791;28;98987;-67
2022/11/29 04:35:54;;;;;;;12.47;8.57;;;5.00;99.90;4.80;100556.00;;;;4975990;28;102860;-67
2022/11/29 04:38:42;;;;;;;15.67;8.77;;;5.00;99.90;4.80;100558.00;;;;4964117;28;102806;-67
2022/11/29 04:41:52;;;;;;;13.83;9.30;;;5.00;99.90;4.80;100557.00;;;;4985901;27;112012;-67
2022/11/29 04:44:53;;;;;;;14.20;9.87;;;5.00;99.90;4.70;100565.00;;;;4951998;28;87720;-67
2022/11/29 04:47:46;;;;;;;14.17;10.30;;;5.00;99.90;4.80;100572.00;;;;4976024;28;102054;-66
2022/11/29 04:50:43;;;;;;;13.83;8.23;;;4.90;99.90;4.70;100570.00;;;;4974428;28;87863;-67
2022/11/29 04:53:37;;;;;;;14.77;9.30;;;4.90;99.90;4.70;100565.00;;;;4984814;28;88752;-66
2022/11/29 04:56:39;;;;;;;13.47;9.60;;;4.90;99.90;4.70;100564.00;;;;4982406;28;96427;-66
2022/11/29 04:59:23;;;;;;;11.73;7.93;;;4.90;99.90;4.70;100570.00;;;;4954366;28;87791;-66
2022/11/29 05:02:29;;;;;;;24.83;9.07;;;4.90;99.90;4.70;100562.00;;;;4977898;28;88348;-65
2022/11/29 05:05:06;;;;;;;12.63;9.17;;;4.90;99.90;4.70;100573.00;;;;4966964;28;90444;-65
2022/11/29 05:08:07;;;;;;;11.33;7.43;;;4.90;99.90;4.60;100578.00;;;;4973992;28;110207;-66
2022/11/29 05:10:46;;;;;;;16.07;9.90;;;4.90;99.90;4.60;100577.00;;;;4972634;28;99258;-65
2022/11/29 05:13:28;;;;;;;22.13;11.13;;;5.60;99.90;4.60;100583.00;;;;4989306;28;87144;-65
2022/11/29 05:16:32;;;;;;;12.37;8.83;;;4.80;99.90;4.60;100588.00;;;;4976707;28;88663;-65
2022/11/29 05:19:34;;;;;;;13.70;8.80;;;4.90;99.90;4.60;100579.00;;;;4968368;28;98573;-65
2022/11/29 05:22:18;;;;;;;15.53;8.93;;;4.80;99.90;4.60;100579.00;;;;4983590;28;89135;-65
2022/11/29 05:25:20;;;;;;;12.97;8.77;;;4.80;99.90;4.60;100589.00;;;;4988553;28;92742;-65
2022/11/29 05:28:16;;;;;;;11.60;9.00;;;4.80;99.90;4.60;100597.00;;;;4980211;28;112822;-65
2022/11/29 05:31:24;;;;;;;13.87;10.03;;;4.80;99.90;4.60;100591.00;;;;4980829;27;87908;-66
2022/11/29 05:34:07;;;;;;;15.93;9.13;;;4.80;99.90;4.60;100589.00;;;;4991760;27;88178;-67
2022/11/29 05:37:09;;;;;;;19.07;10.37;;;4.80;99.90;4.60;100599.00;;;;4993136;27;93428;-66
2022/11/29 05:40:08;;;;;;;15.00;9.00;;;4.80;99.90;4.60;100598.00;;;;4993959;27;88323;-67
2022/11/29 05:43:01;;;;;;;13.47;9.27;;;4.80;99.90;4.60;100602.00;;;;4977539;28;109798;-65
2022/11/29 05:46:06;;;;;;;13.70;10.63;;;4.80;99.90;4.60;100601.00;;;;4992348;27;91619;-66
2022/11/29 05:48:47;;;;;;;13.33;9.13;;;4.80;99.90;4.60;100603.00;;;;4975740;27;103103;-66
2022/11/29 05:51:39;;;;;;;16.53;9.40;;;4.80;99.90;4.60;100606.00;;;;4978825;27;89431;-65
2022/11/29 05:54:24;;;;;;;16.57;10.30;;;5.10;99.90;4.60;100601.00;;;;4973095;27;88870;-65
2022/11/29 05:57:25;;;;;;;16.20;8.30;;;4.80;99.90;4.60;100606.00;;;;4990853;27;97115;-65
2022/11/29 05:59:52;;;;;;;13.70;9.33;;;4.80;99.90;4.60;100613.00;;;;4976275;27;100670;-65
2022/11/29 06:02:55;;;;;;;16.07;10.00;;;4.80;99.90;4.60;100607.00;;;;4977262;27;118558;-65
2022/11/29 06:05:39;;;;;;;15.67;9.80;;;4.90;99.90;4.60;100608.00;;;;4985108;27;87847;-65
2022/11/29 06:08:43;;;;;;;13.00;9.07;;;4.80;99.90;4.60;100620.00;;;;4974895;27;92115;-65
2022/11/29 06:11:29;;;;;;;17.93;9.67;;;4.80;99.90;4.60;100622.00;;;;4987894;27;87176;-66
2022/11/29 06:14:12;;;;;;;21.00;10.07;;;4.80;99.90;4.60;100622.00;;;;4963259;28;88375;-65
2022/11/29 06:17:00;;;;;;;18.80;9.53;;;4.80;99.90;4.60;100627.00;;;;4992205;27;88039;-65
2022/11/29 06:19:52;;;;;;;14.73;10.03;;;4.90;99.90;4.60;100625.00;;;;4979592;28;89059;-65
2022/11/29 06:23:06;;;;;;;16.77;10.80;;;4.80;99.90;4.60;100634.00;;;;4980083;28;87943;-65
2022/11/29 06:26:10;;;;;;;13.33;9.07;;;4.80;99.90;4.60;100633.00;;;;4974510;28;107746;-65
2022/11/29 06:29:12;;;;;;;13.97;8.97;;;4.80;99.90;4.60;100630.00;;;;4992446;28;87683;-65
2022/11/29 06:31:45;;;;;;;21.80;11.13;;;4.80;99.90;4.60;100636.00;;;;4977978;28;87866;-65
2022/11/29 06:35:01;;;;;;;15.73;11.80;;;5.00;99.90;4.60;100643.00;;;;4988391;27;94961;-66
2022/11/29 06:37:43;;;;;;;23.40;13.03;;;4.80;99.90;4.60;100636.00;;;;4979328;28;99194;-66
2022/11/29 06:40:11;;;;;;;30.40;17.50;;;4.80;99.90;4.60;100639.00;;;;4988136;27;106862;-65
2022/11/29 06:42:37;;;;;;;22.03;13.47;;;4.80;99.90;4.60;100645.00;;;;4971148;28;105859;-66
2022/11/29 06:45:04;;;;;;;21.77;14.00;;;4.80;99.90;4.70;100644.00;;;;4990229;28;108495;-66
2022/11/29 06:47:43;;;;;;;24.90;16.07;;;4.80;99.90;4.60;100643.00;;;;4990599;27;108969;-66
2022/11/29 06:50:24;;;;;;;16.57;12.50;;;4.80;99.90;4.70;100646.00;;;;4977122;28;106892;-66
2022/11/29 06:53:03;;;;;;;14.90;10.97;;;4.80;99.90;4.70;100653.00;;;;4991454;28;87668;-65
2022/11/29 06:55:48;;;;;;;13.87;10.60;;;4.90;99.90;4.60;100656.00;;;;4976571;28;101362;-65
2022/11/29 06:59:03;;;;;;;17.00;10.53;;;4.20;99.90;4.60;100650.00;;;;4976232;28;109579;-67
2022/11/29 07:02:02;;;;;;;23.57;10.97;;;4.90;99.90;4.60;100662.00;;;;4991034;28;88543;-65
2022/11/29 07:04:52;;;;;;;15.33;9.47;;;5.50;99.90;4.70;100657.00;;;;4975874;28;105502;-65
2022/11/29 07:07:21;;;;;;;15.80;9.80;;;4.90;99.90;4.70;100661.00;;;;4978475;28;101552;-66
2022/11/29 07:09:50;;;;;;;18.10;10.90;;;4.90;99.90;4.70;100659.00;;;;4993484;28;89097;-65
2022/11/29 07:12:16;;;;;;;14.43;10.03;;;5.00;99.90;4.70;100666.00;;;;4978313;28;92702;-65
2022/11/29 07:14:43;;;;;;;12.87;9.40;;;4.90;99.90;4.70;100668.00;;;;4990910;28;103067;-67
2022/11/29 07:17:37;;;;;;;20.70;10.47;;;4.90;99.90;4.70;100665.00;;;;4992215;28;87845;-65
2022/11/29 07:20:37;;;;;;;12.03;10.20;;;4.90;99.90;4.70;100677.00;;;;4982276;28;111652;-66
2022/11/29 07:23:24;;;;;;;11.47;8.77;;;4.90;99.90;4.70;100673.00;;;;4976067;28;88294;-65
2022/11/29 07:26:15;;;;;;;12.40;8.17;;;4.90;99.90;4.70;100677.00;;;;4981422;28;88017;-66
2022/11/29 07:29:10;;;;;;;13.87;9.57;;;4.90;99.90;4.70;100679.00;;;;4991559;28;87876;-65
2022/11/29 07:32:13;;;;;;;14.10;10.10;;;5.00;99.90;4.70;100676.00;;;;4988450;28;87860;-66
2022/11/29 07:35:09;;;;;;;12.30;9.13;;;5.00;99.90;4.80;100686.00;;;;4979083;28;89855;-66
2022/11/29 07:38:03;;;;;;;13.97;8.43;;;5.00;99.90;4.80;100676.00;;;;4977451;28;87959;-65
2022/11/29 07:40:58;;;;;;;12.00;8.77;;;4.90;99.90;4.80;100690.00;;;;4980661;28;87734;-65
2022/11/29 07:43:44;;;;;;;19.80;10.17;;;5.00;99.90;4.80;100692.00;;;;4967573;28;89059;-66
2022/11/29 07:46:10;;;;;;;15.60;9.73;;;5.00;99.90;4.90;100687.00;;;;4975111;28;92507;-65
2022/11/29 07:48:35;;;;;;;18.17;10.50;;;5.00;99.90;4.90;100697.00;;;;4981694;28;113988;-65
2022/11/29 07:51:01;;;;;;;18.07;9.70;;;4.90;99.90;4.90;100693.00;;;;4984993;28;109128;-65
2022/11/29 07:53:29;;;;;;;20.47;9.93;;;5.30;99.90;4.90;100694.00;;;;4989767;28;88622;-65
2022/11/29 07:55:56;;;;;;;17.17;8.93;;;5.10;99.90;5.00;100701.00;;;;4989601;28;87971;-66
2022/11/29 07:58:22;;;;;;;23.80;13.27;;;5.10;99.90;5.00;100704.00;;;;4986446;28;101425;-66
2022/11/29 08:00:47;;;;;;;25.97;14.70;;;5.20;99.90;5.00;100703.00;;;;4989909;27;109214;-66
2022/11/29 08:03:13;;;;;;;20.00;13.50;;;5.40;99.90;5.00;100708.00;;;;4986032;28;117734;-66
2022/11/29 08:05:44;;;;;;;25.57;14.33;;;5.20;99.90;5.00;100707.00;;;;4986191;28;104912;-66
2022/11/29 08:08:10;;;;;;;24.70;14.73;;;5.20;99.90;5.10;100696.00;;;;4989274;28;88864;-66
2022/11/29 08:10:35;;;;;;;16.30;10.60;;;5.20;99.90;5.10;100701.00;;;;4987423;28;108351;-65
2022/11/29 08:13:01;;;;;;;15.43;10.50;;;5.90;99.90;5.10;100705.00;;;;4986853;27;107029;-65
2022/11/29 08:15:27;;;;;;;18.60;10.73;;;5.20;99.90;5.20;100716.00;;;;4982453;27;108073;-65
2022/11/29 08:17:53;;;;;;;17.97;11.50;;;5.30;99.90;5.20;100715.00;;;;4992380;27;87851;-65
2022/11/29 08:20:19;;;;;;;17.63;10.93;;;5.20;99.90;5.20;100714.00;;;;4987000;28;91397;-65
2022/11/29 08:22:55;;;;;;;16.60;9.23;;;5.40;99.90;5.20;100714.00;;;;4990557;28;88691;-65
2022/11/29 08:25:21;;;;;;;14.00;9.13;;;5.40;99.90;5.30;100712.00;;;;4992574;28;88476;-64
2022/11/29 08:27:47;;;;;;;19.40;10.93;;;5.40;99.90;5.30;100714.00;;;;4992631;28;87855;-64
2022/11/29 08:30:13;;;;;;;15.00;9.23;;;5.30;99.90;5.30;100712.00;;;;4990823;28;87602;-65
2022/11/29 08:32:38;;;;;;;15.77;9.60;;;5.50;99.90;5.40;100702.00;;;;4991792;28;89288;-64
2022/11/29 08:35:04;;;;;;;14.60;9.10;;;5.50;99.90;5.40;100704.00;;;;4991463;28;103795;-65
2022/11/29 08:37:30;;;;;;;11.47;8.20;;;5.60;99.90;5.50;100713.00;;;;4988353;28;104381;-66
2022/11/29 08:39:57;;;;;;;11.70;6.97;;;5.60;99.90;5.50;100716.00;;;;4989886;28;107760;-65
2022/11/29 08:42:22;;;;;;;15.23;8.30;;;5.60;99.90;5.60;100711.00;;;;4988261;28;88785;-65
2022/11/29 08:44:48;;;;;;;12.40;7.13;;;5.60;99.90;5.60;100706.00;;;;4987216;28;116858;-66
2022/11/29 08:50:00;;;;;;;12.17;7.90;;;6.50;99.90;5.70;100719.00;;;;4984084;28;87424;-66
2022/11/29 08:55:21;;;;;;;11.07;6.20;;;5.90;99.90;5.80;100725.00;;;;4984756;28;87699;-66
2022/11/29 08:57:48;;;;;;;17.77;8.63;;;5.80;99.90;5.80;100715.00;;;;4980394;28;88820;-67
2022/11/29 09:00:15;;;;;;;13.40;7.13;;;6.40;99.90;5.90;100727.00;;;;4980924;28;87757;-65
2022/11/29 09:02:41;;;;;;;15.87;10.33;;;6.00;99.90;5.90;100728.00;;;;4989691;28;88964;-64
2022/11/29 09:05:08;;;;;;;20.20;10.30;;;6.40;99.90;6.00;100737.00;;;;4991475;28;118403;-66
2022/11/29 09:07:34;;;;;;;9.47;7.20;;;6.10;99.90;6.00;100733.00;;;;4980556;28;87848;-65
2022/11/29 09:10:04;;;;;;;15.80;8.60;;;6.10;99.90;6.00;100733.00;;;;4989218;28;108273;-66
2022/11/29 09:12:36;;;;;;;13.73;7.43;;;7.00;99.90;6.10;100731.00;;;;4988084;28;88043;-66
2022/11/29 09:15:08;;;;;;;12.17;8.63;;;6.20;99.90;6.10;100732.00;;;;4977659;28;87289;-65
2022/11/29 09:17:34;;;;;;;12.77;7.07;;;6.20;99.90;6.20;100728.00;;;;4978156;28;87766;-65
2022/11/29 09:19:59;;;;;;;13.23;10.33;;;6.90;99.90;6.20;100737.00;;;;4994294;28;87792;-66
2022/11/29 09:22:25;;;;;;;14.43;9.00;;;7.00;99.90;6.30;100732.00;;;;4981733;28;117210;-66
2022/11/29 09:24:51;;;;;;;25.63;16.00;;;6.50;99.90;6.30;100733.00;;;;4985276;28;118433;-66
2022/11/29 09:27:16;;;;;;;19.57;11.50;;;6.80;99.90;6.30;100739.00;;;;4983555;28;111532;-66
2022/11/29 09:29:42;;;;;;;13.17;8.40;;;6.40;99.90;6.40;100741.00;;;;4990251;28;87902;-65
2022/11/29 09:32:08;;;;;;;25.73;17.10;;;6.40;99.90;6.40;100748.00;;;;4979249;28;118907;-66
2022/11/29 09:34:34;;;;;;;44.27;23.37;;;6.70;99.90;6.40;100744.00;;;;4983191;28;88278;-66
2022/11/29 09:36:59;;;;;;;20.63;10.43;;;7.00;99.90;6.40;100743.00;;;;4981642;28;111929;-65
2022/11/29 09:39:25;;;;;;;18.23;11.17;;;6.80;99.90;6.40;100749.00;;;;4978864;28;108881;-66
2022/11/29 09:42:08;;;;;;;15.73;9.37;;;6.70;99.90;6.40;100745.00;;;;4987620;28;99422;-66
2022/11/29 09:45:02;;;;;;;16.97;9.33;;;6.60;99.90;6.40;100744.00;;;;4986171;28;88792;-65
2022/11/29 09:48:45;;;;;;;19.30;11.10;;;6.60;99.90;6.40;100745.00;;;;4987127;27;88842;-65
2022/11/29 09:51:52;;;;;;;14.97;9.13;;;6.60;99.90;6.50;100752.00;;;;4906853;28;88123;-66
2022/11/29 09:54:26;;;;;;;37.93;18.13;;;7.20;99.90;6.50;100748.00;;;;4973206;28;88203;-65
2022/11/29 09:56:54;;;;;;;20.93;11.37;;;6.60;99.90;6.50;100739.00;;;;4985462;28;103439;-66
2022/11/29 09:59:27;;;;;;;8.87;7.00;;;6.60;99.90;6.50;100751.00;;;;4981962;27;87702;-65
2022/11/29 10:02:15;;;;;;;13.17;8.37;;;6.70;99.90;6.50;100738.00;;;;4975777;28;87924;-65
2022/11/29 10:04:47;;;;;;;8.90;6.93;;;6.70;99.90;6.60;100757.00;;;;4974401;28;87633;-64
2022/11/29 10:07:26;;;;;;;15.30;9.23;;;7.30;99.90;6.60;100754.00;;;;4966531;28;90680;-65
2022/11/29 10:10:02;;;;;;;9.17;7.07;;;6.60;99.90;6.60;100753.00;;;;4976347;28;87953;-67
2022/11/29 10:12:47;;;;;;;14.13;8.10;;;6.70;99.90;6.50;100762.00;;;;4976815;28;87781;-66
2022/11/29 10:15:30;;;;;;;15.07;7.70;;;6.70;99.90;6.60;100759.00;;;;4995146;28;88765;-65
2022/11/29 10:18:19;;;;;;;14.23;7.67;;;6.70;99.90;6.60;100756.00;;;;4985881;27;97792;-65
2022/11/29 10:20:48;;;;;;;10.67;7.03;;;6.70;99.90;6.60;100751.00;;;;4984119;27;87956;-66
2022/11/29 10:23:40;;;;;;;13.83;7.23;;;6.70;99.90;6.60;100763.00;;;;4979883;28;89446;-65
2022/11/29 10:26:07;;;;;;;11.40;6.63;;;6.70;99.90;6.60;100763.00;;;;4992747;27;99641;-64
2022/11/29 10:28:35;;;;;;;11.33;8.40;;;6.70;99.90;6.60;100755.00;;;;4992356;28;87837;-65
2022/11/29 10:31:41;;;;;;;17.27;8.97;;;6.70;99.90;6.60;100755.00;;;;4980559;28;87970;-65
2022/11/29 10:34:18;;;;;;;15.33;9.40;;;6.80;99.90;6.70;100755.00;;;;4975578;28;87422;-66
2022/11/29 10:36:58;;;;;;;18.63;8.90;;;7.00;99.90;6.70;100757.00;;;;4979611;28;88032;-66
2022/11/29 10:39:43;;;;;;;12.70;8.70;;;7.60;99.90;6.70;100752.00;;;;4989891;28;88357;-65
2022/11/29 10:45:13;;;;;;;14.70;7.70;;;6.90;99.90;6.80;100754.00;;;;4984936;28;87762;-65
2022/11/29 10:47:39;;;;;;;12.57;8.27;;;6.90;99.90;6.80;100757.00;;;;4976733;28;88383;-65
2022/11/29 10:50:06;;;;;;;13.47;8.27;;;6.90;99.90;6.90;100764.00;;;;4974716;28;116038;-65
2022/11/29 10:52:32;;;;;;;13.47;7.67;;;7.00;99.90;6.90;100761.00;;;;4989847;28;103579;-65
2022/11/29 10:54:58;;;;;;;10.83;7.37;;;7.00;99.90;6.90;100758.00;;;;4993383;28;87839;-64
2022/11/29 10:57:24;;;;;;;15.73;8.57;;;7.70;99.90;6.90;100765.00;;;;4974624;28;118133;-64
2022/11/29 11:00:07;;;;;;;13.23;7.97;;;7.60;99.90;6.90;100762.00;;;;4990989;28;88843;-65
2022/11/29 11:02:33;;;;;;;13.87;8.20;;;7.00;99.90;6.90;100771.00;;;;4991729;28;88059;-64
2022/11/29 11:05:00;;;;;;;14.90;8.50;;;7.00;99.90;6.90;100763.00;;;;4992233;28;94242;-64
2022/11/29 11:07:33;;;;;;;13.17;6.47;;;7.00;99.90;6.90;100770.00;;;;4988772;28;89806;-65
2022/11/29 11:09:59;;;;;;;10.57;7.03;;;7.10;99.90;6.90;100768.00;;;;4978574;27;89530;-64
2022/11/29 11:12:32;;;;;;;9.33;8.07;;;7.70;99.90;6.90;100764.00;;;;4991227;28;87721;-64
2022/11/29 11:15:28;;;;;;;13.07;7.73;;;7.00;99.90;6.90;100766.00;;;;4991883;28;87901;-65
2022/11/29 11:18:03;;;;;;;12.60;7.67;;;7.00;99.90;6.90;100772.00;;;;4993140;27;87925;-65
2022/11/29 11:20:39;;;;;;;11.67;7.67;;;7.00;99.90;6.90;100767.00;;;;4983679;28;88501;-64
2022/11/29 11:23:20;;;;;;;13.07;7.40;;;7.00;99.90;6.90;100780.00;;;;4977175;28;87576;-64
2022/11/29 11:25:48;;;;;;;10.73;7.40;;;7.10;99.90;6.90;100772.00;;;;4976824;28;87158;-65
2022/11/29 11:28:25;;;;;;;15.67;7.73;;;7.10;99.90;6.90;100773.00;;;;4978688;28;88994;-65
2022/11/29 11:30:51;;;;;;;12.40;7.63;;;7.10;99.90;7.00;100780.00;;;;4986238;28;87849;-65
2022/11/29 11:33:28;;;;;;;18.53;7.90;;;7.20;99.90;7.00;100782.00;;;;4974818;28;88925;-64
2022/11/29 11:36:11;;;;;;;13.60;7.53;;;7.10;99.90;6.90;100793.00;;;;4984357;28;87924;-64
2022/11/29 11:39:08;;;;;;;16.63;8.07;;;8.20;99.90;7.00;100787.00;;;;4991522;27;87735;-66
2022/11/29 11:44:48;;;;;;;13.63;6.90;;;7.10;99.90;7.00;100785.00;;;;4985036;28;87712;-66
2022/11/29 11:47:29;;;;;;;11.83;7.37;;;7.10;99.90;7.00;100784.00;;;;4986099;28;87765;-66
2022/11/29 11:50:01;;;;;;;15.43;7.90;;;7.10;99.90;7.00;100783.00;;;;4991690;28;108772;-65
2022/11/29 11:52:34;;;;;;;13.07;7.53;;;7.70;99.90;7.00;100782.00;;;;4988349;28;89426;-66
2022/11/29 11:55:22;;;;;;;12.43;7.60;;;7.80;99.90;7.00;100787.00;;;;4976111;28;104152;-66
2022/11/29 11:58:12;;;;;;;12.67;8.53;;;7.50;99.90;6.90;100793.00;;;;4979057;28;87869;-65
2022/11/29 12:00:55;;;;;;;12.87;8.23;;;7.10;99.90;6.90;100779.00;;;;4991500;27;89018;-65
2022/11/29 12:03:31;;;;;;;11.60;7.40;;;7.10;99.90;6.90;100789.00;;;;4990985;27;88108;-64